Bexleyheath, United Kingdom
Current Conditions -  °F | °C
As of 1:20 PM on Sunday 23 Nov 2014 (Local Time) from EGLC Reporting Station
Light Rain Light Rain  
Wind Chill: 41°   Ceiling: 2000
Heat Index: 46°   Visibility: 6mi
Dew Point: 45°   Wind: 10mph
Humidity: 93%   Direction: 350°N
Pressure: 30"   Gusts: NA
Location:  51.45°N, 0.14°E
Report Text: EGLC 231320Z 35009KT 330V030 9999 -RA FEW008 BKN020 08/07 Q1016
Loading
Personal Weather Stations






























Interactive Weather Map New forecast layout! Learn more

10-Day Weather Forecast

Advertisements
Track Severe Weather on mobile